Time;durP1;ratioP1;P1;durP2;ratioP2;P2;SDS_P1;SDS_P2;PMS_P1;PMS_P2;Temp;Humidity;BMP_temperature;BMP_pressure;BME280_temperature;BME280_humidity;BME280_pressure;Samples;Min_cycle;Max_cycle;Signal;HPM_P1;HPM_P2
2021/01/13 00:00:23;;;;;;;11.23;1.83;;;;;;;-0.08;96.80;100078.56;4981022;28;20034;-78
2021/01/13 00:02:50;;;;;;;8.63;1.73;;;;;;;-0.09;96.88;100079.47;4988065;28;20104;-81
2021/01/13 00:05:18;;;;;;;12.98;1.65;;;;;;;-0.24;97.63;100077.22;5013990;28;20038;-83
2021/01/13 00:07:45;;;;;;;9.48;1.60;;;;;;;-0.26;97.99;100073.81;4987982;28;20121;-79
2021/01/13 00:10:17;;;;;;;7.18;1.73;;;;;;;-0.13;97.84;100071.81;5007963;28;20038;-81
2021/01/13 00:12:43;;;;;;;10.02;1.55;;;;;;;-0.16;97.32;100077.88;4998328;28;20034;-83
2021/01/13 00:15:10;;;;;;;8.45;2.03;;;;;;;-0.27;98.15;100072.97;4998884;28;20048;-81
2021/01/13 00:17:39;;;;;;;8.32;1.90;;;;;;;-0.21;97.96;100076.31;5000632;28;20165;-79
2021/01/13 00:20:07;;;;;;;10.40;1.40;;;;;;;-0.37;98.01;100081.81;4991948;28;20041;-82
2021/01/13 00:22:34;;;;;;;8.90;2.15;;;;;;;-0.34;98.39;100086.09;4998650;28;20030;-82
2021/01/13 00:25:01;;;;;;;8.52;1.33;;;;;;;-0.47;98.19;100093.25;4979346;28;20394;-84
2021/01/13 00:27:32;;;;;;;11.35;3.35;;;;;;;-0.51;98.58;100084.72;5009725;28;20360;-79
2021/01/13 00:29:59;;;;;;;10.70;3.08;;;;;;;-0.51;98.98;100087.28;5017774;28;20041;-80
2021/01/13 00:32:50;;;;;;;11.57;2.15;;;;;;;-0.42;98.16;100096.59;5022267;28;20049;-77
2021/01/13 00:35:18;;;;;;;10.63;1.63;;;;;;;-0.36;98.04;100093.88;5010442;28;20113;-79
2021/01/13 00:37:44;;;;;;;14.13;1.58;;;;;;;-0.39;98.34;100086.19;4974739;28;20042;-81
2021/01/13 00:40:12;;;;;;;14.38;1.95;;;;;;;-0.38;98.38;100087.88;5014896;28;20034;-79
2021/01/13 00:42:48;;;;;;;8.85;1.75;;;;;;;-0.33;98.28;100098.97;4978401;28;20037;-81
2021/01/13 00:45:17;;;;;;;9.90;1.48;;;;;;;-0.14;97.64;100081.28;4978316;28;20033;-82
2021/01/13 00:47:51;;;;;;;6.10;1.42;;;;;;;-0.15;97.33;100077.00;4988692;28;20049;-80
2021/01/13 00:50:19;;;;;;;16.55;2.60;;;;;;;-0.08;96.75;100088.06;4975139;28;20129;-80
2021/01/13 00:52:50;;;;;;;10.82;1.50;;;;;;;-0.17;96.90;100091.72;4991982;28;20050;-83
2021/01/13 00:55:17;;;;;;;7.25;1.58;;;;;;;-0.15;96.65;100099.44;4969562;28;20044;-81
2021/01/13 00:57:51;;;;;;;14.02;1.63;;;;;;;-0.06;96.45;100092.28;4990350;28;20117;-84
2021/01/13 01:00:18;;;;;;;10.85;1.58;;;;;;;0.01;95.83;100094.75;4993782;28;20080;-81
2021/01/13 01:02:50;;;;;;;24.98;1.77;;;;;;;-0.05;95.52;100100.91;5003212;28;20034;-80
2021/01/13 01:05:20;;;;;;;13.93;2.05;;;;;;;-0.07;95.90;100106.13;5009926;28;20096;-81
2021/01/13 01:07:47;;;;;;;9.90;1.52;;;;;;;0.00;96.05;100106.84;4976130;28;20046;-81
2021/01/13 01:10:20;;;;;;;9.82;2.83;;;;;;;0.04;96.12;100116.22;4978099;28;20049;-79
2021/01/13 01:12:47;;;;;;;10.88;1.95;;;;;;;-0.02;95.44;100116.38;4974170;28;20042;-80
2021/01/13 01:15:13;;;;;;;7.97;1.50;;;;;;;0.09;95.38;100114.38;5012094;28;20033;-81
2021/01/13 01:17:40;;;;;;;6.80;1.40;;;;;;;0.02;95.57;100115.41;4980724;28;20042;-79
2021/01/13 01:20:07;;;;;;;11.02;1.60;;;;;;;-0.02;95.33;100112.03;4993753;28;20042;-78
2021/01/13 01:22:34;;;;;;;8.20;1.35;;;;;;;-0.03;95.63;100125.88;4991257;28;20121;-77
2021/01/13 01:25:02;;;;;;;11.85;2.15;;;;;;;0.00;95.78;100127.56;4975800;28;20050;-81
2021/01/13 01:27:32;;;;;;;3.85;1.10;;;;;;;0.10;95.77;100120.41;5010331;28;20046;-78
2021/01/13 01:29:59;;;;;;;11.80;1.95;;;;;;;-0.03;95.71;100115.53;4992527;28;20052;-85
2021/01/13 01:32:28;;;;;;;10.30;2.13;;;;;;;-0.09;96.50;100133.78;4977441;28;20088;-83
2021/01/13 01:34:55;;;;;;;14.45;2.50;;;;;;;-0.14;96.33;100127.84;5007143;28;20037;-83
2021/01/13 01:37:22;;;;;;;11.13;1.55;;;;;;;-0.16;96.53;100124.44;5003311;28;20137;-79
2021/01/13 01:39:58;;;;;;;12.70;2.00;;;;;;;-0.19;96.46;100131.44;5007349;28;20483;-78
2021/01/13 01:42:25;;;;;;;11.07;1.98;;;;;;;-0.12;96.79;100128.69;4990332;28;20037;-84
2021/01/13 01:44:55;;;;;;;13.02;2.45;;;;;;;-0.12;96.08;100138.19;4997775;28;20405;-85
2021/01/13 01:47:58;;;;;;;19.42;2.63;;;;;;;-0.13;96.61;100142.50;4991767;28;20060;-78
2021/01/13 01:50:28;;;;;;;12.77;1.80;;;;;;;-0.04;96.00;100144.88;5008683;28;20080;-80
2021/01/13 01:53:11;;;;;;;14.85;2.20;;;;;;;0.06;96.29;100142.06;4991729;28;20030;-81
2021/01/13 01:56:17;;;;;;;11.80;2.05;;;;;;;0.18;95.38;100145.22;5012642;28;20033;-83
2021/01/13 01:58:49;;;;;;;11.32;2.15;;;;;;;0.26;94.83;100152.78;5015328;28;20120;-85
2021/01/13 02:01:30;;;;;;;16.75;2.20;;;;;;;0.19;94.71;100151.25;5020577;28;20059;-81
2021/01/13 02:04:16;;;;;;;15.65;1.80;;;;;;;0.13;95.62;100148.78;5016382;28;20046;-81
2021/01/13 02:07:21;;;;;;;12.57;2.78;;;;;;;0.24;95.24;100160.59;5005287;28;20092;-80
2021/01/13 02:09:55;;;;;;;14.85;3.15;;;;;;;0.12;95.50;100144.50;4996599;28;20121;-80
2021/01/13 02:12:28;;;;;;;24.15;5.07;;;;;;;0.22;95.38;100144.22;4988141;28;20125;-83
2021/01/13 02:14:55;;;;;;;10.80;2.03;;;;;;;0.29;95.09;100144.94;4987915;28;20042;-81
2021/01/13 02:17:34;;;;;;;8.38;3.20;;;;;;;0.34;94.77;100150.88;4990105;28;20041;-80
2021/01/13 02:20:14;;;;;;;13.73;2.30;;;;;;;0.30;94.92;100154.41;4989759;28;20034;-79
2021/01/13 02:22:59;;;;;;;9.52;2.45;;;;;;;0.29;94.85;100157.06;4999572;28;20042;-82
2021/01/13 02:25:45;;;;;;;13.30;2.60;;;;;;;0.53;94.46;100161.59;4993843;28;20500;-79
2021/01/13 02:28:23;;;;;;;8.38;2.17;;;;;;;0.55;93.92;100151.22;5004639;28;20045;-84
2021/01/13 02:31:13;;;;;;;17.80;3.30;;;;;;;0.49;93.66;100141.84;5010271;28;20049;-83
2021/01/13 02:33:49;;;;;;;7.35;2.42;;;;;;;0.46;93.71;100149.72;4983495;28;20034;-79
2021/01/13 02:36:52;;;;;;;15.63;2.90;;;;;;;0.58;93.40;100148.53;5010323;28;20050;-81
2021/01/13 02:39:32;;;;;;;10.90;2.30;;;;;;;0.54;93.51;100160.75;4993804;28;20573;-82
2021/01/13 02:42:01;;;;;;;17.92;3.97;;;;;;;0.48;93.23;100141.00;5001005;28;20133;-86
2021/01/13 02:44:30;;;;;;;16.20;2.78;;;;;;;0.44;93.63;100157.50;4976069;28;20074;-80
2021/01/13 02:47:06;;;;;;;12.75;3.50;;;;;;;0.43;94.06;100154.97;5010231;28;20497;-82
2021/01/13 02:49:40;;;;;;;7.88;2.25;;;;;;;0.46;94.34;100158.34;4990586;28;20057;-83
2021/01/13 02:52:24;;;;;;;5.28;2.13;;;;;;;0.63;93.46;100157.91;4996669;28;20292;-82
2021/01/13 02:54:56;;;;;;;16.38;2.67;;;;;;;0.53;93.96;100153.00;5000115;28;20060;-80
2021/01/13 02:57:29;;;;;;;12.10;2.42;;;;;;;0.50;93.86;100157.38;5004157;28;20389;-83
2021/01/13 02:59:57;;;;;;;12.93;2.38;;;;;;;0.59;93.73;100160.63;5004692;28;20038;-82
2021/01/13 03:02:36;;;;;;;12.68;2.40;;;;;;;0.64;92.78;100154.44;5020630;28;20050;-80
2021/01/13 03:05:06;;;;;;;9.15;2.33;;;;;;;0.66;92.75;100144.03;5006589;28;20549;-84
2021/01/13 03:07:38;;;;;;;14.70;2.38;;;;;;;0.74;92.72;100144.69;4999935;28;20050;-79
2021/01/13 03:10:24;;;;;;;14.57;3.60;;;;;;;0.67;92.75;100153.47;4989604;28;20054;-79
2021/01/13 03:13:05;;;;;;;13.18;3.17;;;;;;;0.82;92.29;100153.09;4997930;28;20041;-83
2021/01/13 03:15:36;;;;;;;10.02;1.85;;;;;;;0.82;92.00;100153.09;5014702;28;20128;-83
2021/01/13 03:18:21;;;;;;;16.95;2.53;;;;;;;0.70;92.24;100171.56;4982938;28;20049;-84
2021/01/13 03:21:07;;;;;;;12.43;2.60;;;;;;;0.85;92.18;100159.94;5010629;28;20045;-77
2021/01/13 03:24:13;;;;;;;10.07;2.45;;;;;;;0.61;92.27;100167.44;4993037;28;20129;-80
2021/01/13 03:26:52;;;;;;;9.57;2.42;;;;;;;0.61;92.04;100162.28;4989301;28;20062;-83
2021/01/13 03:29:25;;;;;;;8.98;2.22;;;;;;;0.70;92.36;100168.97;4990564;28;20052;-79
2021/01/13 03:32:09;;;;;;;11.02;2.42;;;;;;;0.65;92.22;100170.81;5021716;28;20060;-83
2021/01/13 03:34:56;;;;;;;6.63;2.33;;;;;;;0.61;92.60;100164.00;5010486;28;20034;-77
2021/01/13 03:37:25;;;;;;;10.75;2.78;;;;;;;0.74;92.33;100168.00;5009425;28;20053;-83
2021/01/13 03:39:57;;;;;;;8.73;2.42;;;;;;;0.67;92.17;100166.44;5004329;28;20101;-79
2021/01/13 03:42:34;;;;;;;15.30;2.60;;;;;;;0.69;92.72;100162.09;4985463;28;20523;-82
2021/01/13 03:45:06;;;;;;;14.13;3.72;;;;;;;0.63;92.95;100163.09;5012322;28;20068;-80
2021/01/13 03:47:54;;;;;;;12.32;2.33;;;;;;;0.76;92.26;100161.00;4991352;28;20030;-80
2021/01/13 03:50:24;;;;;;;10.85;2.22;;;;;;;0.69;92.38;100159.50;4997558;28;20126;-81
2021/01/13 03:52:55;;;;;;;15.07;2.38;;;;;;;0.82;92.55;100155.69;5008044;28;20489;-80
2021/01/13 03:55:23;;;;;;;9.40;2.35;;;;;;;0.88;91.83;100152.09;4992342;28;20045;-81
2021/01/13 03:57:56;;;;;;;12.45;2.75;;;;;;;0.92;92.33;100158.88;5014041;28;20128;-85
2021/01/13 04:00:31;;;;;;;10.15;2.50;;;;;;;0.90;91.62;100147.69;5013216;28;20056;-82
2021/01/13 04:03:12;;;;;;;8.13;1.90;;;;;;;0.86;92.34;100139.19;5009133;28;20025;-80
2021/01/13 04:06:05;;;;;;;15.40;2.38;;;;;;;0.79;92.22;100149.72;5008821;28;20041;-83
2021/01/13 04:08:41;;;;;;;14.80;2.63;;;;;;;0.75;92.48;100149.81;4996412;28;20108;-82
2021/01/13 04:11:15;;;;;;;9.07;2.00;;;;;;;0.84;91.67;100158.22;4987304;28;20056;-82
2021/01/13 04:13:44;;;;;;;10.10;2.13;;;;;;;0.76;91.62;100161.00;4997628;28;20104;-81
2021/01/13 04:16:17;;;;;;;6.75;1.92;;;;;;;0.74;91.98;100157.63;4996186;28;20177;-79
2021/01/13 04:18:46;;;;;;;8.82;1.95;;;;;;;0.88;92.32;100160.69;5006237;28;20080;-85
2021/01/13 04:21:15;;;;;;;9.25;2.58;;;;;;;0.89;91.74;100167.56;4991762;28;20322;-83
2021/01/13 04:23:43;;;;;;;12.20;2.10;;;;;;;0.86;92.12;100170.28;4990155;28;20045;-80
2021/01/13 04:26:11;;;;;;;8.13;1.98;;;;;;;0.93;92.18;100163.16;4974590;28;20038;-85
2021/01/13 04:28:38;;;;;;;6.45;2.10;;;;;;;0.84;92.02;100166.00;5010438;28;20475;-80
2021/01/13 04:31:06;;;;;;;14.02;2.90;;;;;;;0.88;92.02;100165.88;4990840;28;20049;-85
2021/01/13 04:33:33;;;;;;;13.30;2.08;;;;;;;0.76;92.42;100156.69;4979696;28;20034;-78
2021/01/13 04:36:04;;;;;;;11.20;3.25;;;;;;;0.55;93.15;100161.59;5005272;28;20084;-79
2021/01/13 04:38:32;;;;;;;15.93;2.45;;;;;;;0.69;92.81;100162.09;4999751;28;20050;-78
2021/01/13 04:41:07;;;;;;;6.53;1.67;;;;;;;0.65;92.43;100157.88;4974633;28;20050;-83
2021/01/13 04:43:49;;;;;;;13.60;3.42;;;;;;;0.78;93.23;100159.25;5006003;28;20157;-80
2021/01/13 04:46:53;;;;;;;8.85;2.55;;;;;;;0.74;92.37;100157.63;5008817;28;20046;-76
2021/01/13 04:49:21;;;;;;;9.48;2.30;;;;;;;0.83;92.26;100152.19;5001363;28;20046;-83
2021/01/13 04:51:48;;;;;;;10.52;2.40;;;;;;;0.89;91.68;100152.03;4990602;28;20042;-82
2021/01/13 04:54:16;;;;;;;14.25;2.60;;;;;;;0.64;92.36;100151.84;5001667;28;20046;-80
2021/01/13 04:57:10;;;;;;;12.10;2.38;;;;;;;0.74;92.49;100168.84;5006754;28;20037;-80
2021/01/13 05:00:08;;;;;;;16.30;3.17;;;;;;;0.63;91.88;100165.69;4986765;28;20038;-80
2021/01/13 05:03:05;;;;;;;13.32;2.88;;;;;;;0.74;92.79;100165.41;4972110;28;20499;-80
2021/01/13 05:05:49;;;;;;;9.10;2.50;;;;;;;0.72;92.51;100160.28;5009674;28;20098;-80
2021/01/13 05:08:28;;;;;;;11.90;2.55;;;;;;;0.72;92.11;100152.50;4999863;28;20300;-80
2021/01/13 05:11:11;;;;;;;12.80;2.58;;;;;;;0.59;92.71;100153.69;4994708;28;20041;-83
2021/01/13 05:13:43;;;;;;;11.32;2.13;;;;;;;0.61;92.15;100157.09;4987086;28;20050;-81
2021/01/13 05:16:12;;;;;;;14.52;3.72;;;;;;;0.68;92.31;100156.06;4977708;28;20061;-82
2021/01/13 05:18:56;;;;;;;12.95;3.08;;;;;;;0.62;91.71;100160.53;4985102;28;20489;-80
2021/01/13 05:21:27;;;;;;;8.32;2.70;;;;;;;0.55;91.73;100148.66;4990857;28;20030;-84
2021/01/13 05:23:58;;;;;;;7.18;2.55;;;;;;;0.37;92.23;100145.63;4983927;28;20144;-79
2021/01/13 05:26:26;;;;;;;12.85;3.15;;;;;;;0.48;92.83;100147.94;4987657;28;20181;-83
2021/01/13 05:29:07;;;;;;;11.40;2.47;;;;;;;0.44;92.50;100139.38;5004149;28;20030;-83
2021/01/13 05:31:36;;;;;;;10.50;2.38;;;;;;;0.54;92.37;100140.03;5010567;28;20252;-79
2021/01/13 05:34:04;;;;;;;12.15;3.22;;;;;;;0.56;92.26;100146.00;4989247;28;20065;-81
2021/01/13 05:36:32;;;;;;;8.77;2.10;;;;;;;0.42;91.98;100143.75;4993051;28;20504;-82
2021/01/13 05:39:07;;;;;;;5.80;2.00;;;;;;;0.41;91.97;100136.03;4996460;28;20060;-85
2021/01/13 05:41:39;;;;;;;19.98;3.05;;;;;;;0.33;91.90;100144.00;4996362;28;20034;-84
2021/01/13 05:44:08;;;;;;;9.98;2.28;;;;;;;0.44;92.47;100147.16;4995892;28;20095;-80
2021/01/13 05:46:45;;;;;;;11.77;2.70;;;;;;;0.56;91.71;100152.94;5024160;28;20042;-79
2021/01/13 05:49:14;;;;;;;10.63;2.53;;;;;;;0.52;91.65;100151.31;5013390;28;20466;-82
2021/01/13 05:51:42;;;;;;;6.97;1.83;;;;;;;0.47;91.91;100154.00;4997284;28;20118;-81
2021/01/13 05:54:16;;;;;;;9.38;2.75;;;;;;;0.62;91.83;100151.00;4993853;28;20042;-82
2021/01/13 05:56:44;;;;;;;9.43;3.28;;;;;;;0.65;91.08;100150.09;4994966;28;20556;-82
2021/01/13 05:59:11;;;;;;;12.57;2.38;;;;;;;0.45;92.29;100161.81;5013765;28;20061;-79
2021/01/13 06:01:47;;;;;;;10.02;2.55;;;;;;;0.64;91.72;100163.94;4981117;28;20068;-83
2021/01/13 06:04:17;;;;;;;9.45;2.20;;;;;;;0.68;92.06;100175.94;5016379;28;20030;-85
2021/01/13 06:06:57;;;;;;;10.25;3.05;;;;;;;0.75;92.05;100165.34;4996292;28;20102;-80
2021/01/13 06:09:24;;;;;;;12.80;3.08;;;;;;;0.43;93.62;100167.91;5017036;28;20049;-81
2021/01/13 06:11:52;;;;;;;12.68;3.03;;;;;;;0.32;94.80;100163.00;5013564;28;20062;-80
2021/01/13 06:14:26;;;;;;;11.57;3.50;;;;;;;0.32;95.78;100164.75;5017713;28;20132;-82
2021/01/13 06:16:55;;;;;;;14.18;3.78;;;;;;;0.30;96.50;100162.19;4999183;28;20042;-82
2021/01/13 06:19:23;;;;;;;27.17;3.72;;;;;;;0.35;96.36;100170.69;4978512;28;20664;-79
2021/01/13 06:22:08;;;;;;;9.45;3.40;;;;;;;0.42;96.11;100169.66;4998948;28;20074;-86
2021/01/13 06:24:37;;;;;;;17.65;3.40;;;;;;;0.23;96.14;100166.66;5000543;28;20068;-83
2021/01/13 06:27:16;;;;;;;15.65;3.35;;;;;;;0.36;95.42;100166.34;5016762;28;20036;-81
2021/01/13 06:29:51;;;;;;;12.90;3.10;;;;;;;0.40;95.44;100167.97;5012936;28;20049;-79
2021/01/13 06:32:27;;;;;;;10.68;2.78;;;;;;;0.59;95.78;100163.22;4996321;28;20037;-78
2021/01/13 06:34:58;;;;;;;16.35;4.60;;;;;;;0.50;94.35;100159.97;5013922;28;20255;-79
2021/01/13 06:37:36;;;;;;;12.43;4.07;;;;;;;0.58;94.76;100164.94;4974683;28;20105;-80
2021/01/13 06:40:11;;;;;;;13.40;2.38;;;;;;;0.43;94.29;100162.75;5000502;28;20061;-84
2021/01/13 06:42:45;;;;;;;15.55;2.58;;;;;;;0.73;94.45;100161.13;5016137;28;20498;-82
2021/01/13 06:45:32;;;;;;;13.70;3.00;;;;;;;0.67;93.33;100163.84;5018085;28;20060;-82
2021/01/13 06:48:10;;;;;;;10.15;2.63;;;;;;;0.68;93.29;100158.66;5013712;28;20050;-85
2021/01/13 06:50:45;;;;;;;13.77;3.70;;;;;;;0.61;93.36;100164.00;4998471;28;20034;-84
2021/01/13 06:53:13;;;;;;;11.82;2.78;;;;;;;0.61;93.54;100174.38;5016033;28;20046;-82
2021/01/13 06:55:57;;;;;;;16.27;2.50;;;;;;;0.75;92.87;100174.88;5033834;28;20449;-87
2021/01/13 06:59:05;;;;;;;17.10;2.65;;;;;;;0.69;93.56;100162.94;5006261;28;20038;-90
2021/01/13 07:02:10;;;;;;;9.57;2.95;;;;;;;0.71;93.43;100173.25;5019330;28;20054;-86
2021/01/13 07:04:47;;;;;;;13.43;2.65;;;;;;;0.66;92.83;100168.19;5006241;28;20552;-84
2021/01/13 07:10:22;;;;;;;13.85;4.00;;;;;;;0.88;92.29;100178.84;5010650;28;20054;-88
2021/01/13 07:13:03;;;;;;;20.63;2.95;;;;;;;0.74;93.15;100170.59;5011477;28;20452;-89
2021/01/13 07:15:55;;;;;;;24.52;3.72;;;;;;;0.71;92.72;100175.84;4999708;28;20060;-86
2021/01/13 07:18:24;;;;;;;11.38;3.20;;;;;;;0.92;92.19;100175.28;5005039;28;20042;-86
2021/01/13 07:20:51;;;;;;;11.60;2.60;;;;;;;0.97;92.38;100169.97;4986683;28;20061;-86
2021/01/13 07:23:20;;;;;;;11.73;3.17;;;;;;;1.24;91.29;100179.59;5005365;28;20141;-87
2021/01/13 07:25:49;;;;;;;14.73;2.38;;;;;;;0.91;90.99;100175.34;4998465;28;20046;-89
2021/01/13 07:28:37;;;;;;;10.07;2.23;;;;;;;0.96;91.28;100194.19;4996343;28;20069;-87
2021/01/13 07:31:07;;;;;;;11.20;2.00;;;;;;;1.12;90.22;100185.09;4991714;28;20594;-87
2021/01/13 07:33:44;;;;;;;7.97;2.17;;;;;;;0.97;90.99;100190.72;5000850;28;20046;-87
2021/01/13 07:36:15;;;;;;;12.10;2.42;;;;;;;0.98;90.62;100193.25;4982749;28;20048;-86
2021/01/13 07:39:22;;;;;;;14.05;3.38;;;;;;;1.06;91.45;100189.63;4998093;28;20158;-88
2021/01/13 07:42:10;;;;;;;25.63;2.45;;;;;;;1.22;90.71;100183.13;4994727;28;20029;-86
2021/01/13 07:44:44;;;;;;;11.07;2.33;;;;;;;1.21;90.00;100184.00;4991839;28;20046;-89
2021/01/13 07:47:29;;;;;;;23.13;3.58;;;;;;;1.04;90.58;100179.28;4988799;28;20040;-88
2021/01/13 07:50:08;;;;;;;9.15;3.00;;;;;;;1.05;90.64;100180.16;4973662;28;20744;-87
2021/01/13 07:52:45;;;;;;;8.90;2.28;;;;;;;1.10;90.09;100167.91;5005951;28;20099;-88
2021/01/13 07:55:17;;;;;;;13.07;2.38;;;;;;;1.07;90.58;100173.16;4988813;28;20054;-88
2021/01/13 07:57:50;;;;;;;16.15;2.90;;;;;;;1.17;90.97;100177.19;5002549;28;20072;-86
2021/01/13 08:00:29;;;;;;;12.65;2.55;;;;;;;1.17;90.23;100177.19;4996841;28;20053;-86
2021/01/13 08:03:27;;;;;;;16.02;3.25;;;;;;;1.42;90.49;100169.59;4998875;28;20049;-88
2021/01/13 08:06:31;;;;;;;5.65;2.25;;;;;;;1.16;90.03;100178.09;5001048;28;20048;-87
2021/01/13 08:09:25;;;;;;;10.52;2.78;;;;;;;1.35;90.22;100181.03;5005321;28;20030;-86
2021/01/13 08:12:13;;;;;;;16.95;2.30;;;;;;;1.18;90.55;100179.75;5026329;28;20026;-87
2021/01/13 08:15:28;;;;;;;7.63;2.50;;;;;;;1.21;90.35;100184.84;5033472;28;20044;-87
2021/01/13 08:21:11;;;;;;;8.63;2.35;;;;;;;1.45;90.15;100183.34;4989226;28;20055;-77
2021/01/13 08:23:46;;;;;;;16.20;2.65;;;;;;;1.46;90.06;100181.59;4951641;28;20047;-77
2021/01/13 08:26:14;;;;;;;13.52;2.70;;;;;;;1.37;90.20;100180.09;4984719;28;20078;-76
2021/01/13 08:28:48;;;;;;;14.77;3.03;;;;;;;1.31;90.99;100185.47;4962414;28;20556;-77
2021/01/13 08:31:23;;;;;;;10.60;2.67;;;;;;;1.45;90.54;100185.06;4960643;28;20054;-78
2021/01/13 08:34:07;;;;;;;;;;;;;;;1.31;90.04;100185.47;4977110;28;20098;-76
2021/01/13 08:36:39;;;;;;;10.27;2.38;;;;;;;1.08;91.26;100183.50;4973278;28;20810;-77
2021/01/13 08:39:13;;;;;;;13.15;2.55;;;;;;;1.10;91.03;100193.81;4958859;28;20486;-76
2021/01/13 08:41:42;;;;;;;7.68;2.28;;;;;;;1.09;91.23;100192.13;4988304;28;20702;-78
2021/01/13 08:44:16;;;;;;;10.43;2.28;;;;;;;1.32;90.25;100178.53;4957479;28;20063;-76
2021/01/13 08:46:48;;;;;;;6.53;2.20;;;;;;;1.33;89.73;100188.84;4972648;28;20465;-76
2021/01/13 08:49:20;;;;;;;9.82;2.20;;;;;;;1.39;89.91;100191.25;4946807;28;20051;-77
2021/01/13 08:52:12;;;;;;;9.00;3.70;;;;;;;1.37;89.96;100192.22;4967587;28;20051;-76
2021/01/13 08:54:39;;;;;;;13.98;2.83;;;;;;;1.36;89.25;100188.78;4964000;28;20065;-78
2021/01/13 08:57:10;;;;;;;12.65;2.90;;;;;;;1.54;89.05;100196.94;4972202;28;20047;-76
2021/01/13 08:59:41;;;;;;;13.65;2.35;;;;;;;1.56;88.72;100185.59;4942849;28;20046;-76
2021/01/13 09:02:13;;;;;;;8.07;1.85;;;;;;;1.67;88.00;100191.34;4971281;28;20066;-77
2021/01/13 09:04:58;;;;;;;7.20;1.95;;;;;;;1.81;87.85;100180.56;4976705;28;20055;-80
2021/01/13 09:07:29;;;;;;;11.27;2.17;;;;;;;1.73;87.96;100185.13;4995465;28;20046;-78
2021/01/13 09:09:57;;;;;;;8.25;1.70;;;;;;;1.73;86.98;100185.97;4968158;28;20091;-77
2021/01/13 09:12:27;;;;;;;11.00;2.20;;;;;;;1.71;87.09;100187.78;4984648;28;20100;-80
2021/01/13 09:15:07;;;;;;;9.82;1.63;;;;;;;1.84;87.70;100188.22;4974313;28;20042;-79
2021/01/13 09:17:38;;;;;;;7.68;2.63;;;;;;;1.76;87.08;100187.63;4971193;28;20134;-80
2021/01/13 09:20:17;;;;;;;12.52;1.60;;;;;;;1.76;87.30;100192.81;4970824;28;20496;-78
2021/01/13 09:22:56;;;;;;;9.68;1.90;;;;;;;1.96;86.84;100194.81;4977520;28;20353;-78
2021/01/13 09:25:26;;;;;;;14.80;2.33;;;;;;;1.72;86.73;100191.22;4977732;28;20049;-79
2021/01/13 09:28:01;;;;;;;8.30;1.80;;;;;;;1.85;87.22;100200.34;4965782;28;20058;-80
2021/01/13 09:30:35;;;;;;;7.35;1.67;;;;;;;1.99;86.99;100185.19;4959569;28;20101;-80
2021/01/13 09:33:08;;;;;;;10.32;1.98;;;;;;;2.13;86.35;100192.53;4974516;28;20071;-76
2021/01/13 09:35:37;;;;;;;12.50;1.70;;;;;;;2.16;86.44;100183.78;4963823;28;20057;-76
2021/01/13 09:38:08;;;;;;;11.63;1.70;;;;;;;2.08;86.81;100184.06;4993470;28;20054;-76
2021/01/13 09:40:52;;;;;;;4.50;1.50;;;;;;;2.18;85.77;100187.19;4950235;28;20138;-76
2021/01/13 09:43:32;;;;;;;10.20;1.63;;;;;;;2.34;85.47;100178.00;4961559;28;20046;-75
2021/01/13 09:46:01;;;;;;;10.93;1.75;;;;;;;1.96;85.44;100174.88;4971291;28;20055;-78
2021/01/13 09:48:30;;;;;;;5.65;2.67;;;;;;;2.03;85.46;100176.41;4996384;23;20070;-77
2021/01/13 09:50:59;;;;;;;16.30;2.67;;;;;;;1.90;86.83;100174.22;4971361;28;20050;-76
2021/01/13 09:53:35;;;;;;;10.85;1.98;;;;;;;2.50;86.06;100167.97;4965855;28;20432;-77
2021/01/13 09:56:08;;;;;;;;;;;;;;;2.81;83.99;100166.94;4980563;28;20174;-77
2021/01/13 09:58:40;;;;;;;12.55;1.88;;;;;;;2.37;84.24;100159.72;4965821;28;19925;-77
2021/01/13 10:01:13;;;;;;;11.48;2.00;;;;;;;2.17;85.51;100160.38;4972581;28;20476;-77
2021/01/13 10:03:43;;;;;;;11.57;2.67;;;;;;;2.28;85.32;100167.81;4971372;28;20046;-77
2021/01/13 10:06:14;;;;;;;9.18;2.15;;;;;;;2.37;84.87;100151.09;4949708;28;20433;-78
2021/01/13 10:09:10;;;;;;;4.95;1.58;;;;;;;2.03;85.30;100160.81;4988546;28;20158;-77
2021/01/13 10:11:36;;;;;;;;;;;;;;;1.88;86.35;100152.66;4978958;28;20046;-78
2021/01/13 10:14:05;;;;;;;8.73;1.83;;;;;;;2.05;86.72;100160.78;4954482;28;20384;-77
2021/01/13 10:16:41;;;;;;;9.20;2.20;;;;;;;1.90;86.05;100162.09;4962199;28;20064;-77
2021/01/13 10:19:12;;;;;;;11.55;2.30;;;;;;;1.96;86.40;100153.28;4982920;28;20109;-77
2021/01/13 10:21:45;;;;;;;6.68;1.50;;;;;;;1.95;86.49;100160.22;5001782;28;20424;-78
2021/01/13 10:24:13;;;;;;;8.65;2.15;;;;;;;2.09;85.47;100158.94;4973454;28;20453;-76
2021/01/13 10:26:46;;;;;;;8.70;1.17;;;;;;;2.14;85.94;100144.91;4988212;28;20099;-78
2021/01/13 10:29:21;;;;;;;12.27;1.92;;;;;;;2.33;86.05;100142.53;4994565;28;20057;-78
2021/01/13 10:31:48;;;;;;;7.63;1.38;;;;;;;2.34;84.52;100139.03;4996257;28;20054;-76
2021/01/13 10:34:16;;;;;;;2.65;1.27;;;;;;;2.38;85.42;100135.44;4975377;28;20581;-76
2021/01/13 10:36:49;;;;;;;5.75;1.50;;;;;;;2.48;85.20;100138.63;4978165;28;20054;-77
2021/01/13 10:39:16;;;;;;;13.77;3.08;;;;;;;2.47;83.84;100140.34;4976015;28;20046;-77
2021/01/13 10:41:47;;;;;;;9.93;1.70;;;;;;;2.46;84.11;100137.81;4989077;28;20124;-77
2021/01/13 10:44:18;;;;;;;9.32;1.80;;;;;;;2.42;83.88;100136.19;4963314;28;20161;-78
2021/01/13 10:46:55;;;;;;;6.32;2.53;;;;;;;2.63;83.85;100135.50;4960990;28;20054;-76
2021/01/13 10:49:30;;;;;;;7.88;1.27;;;;;;;2.79;83.36;100134.06;4995365;28;20058;-78
2021/01/13 10:52:14;;;;;;;9.98;1.48;;;;;;;2.35;83.37;100127.78;4979244;28;20057;-77
2021/01/13 10:54:54;;;;;;;6.80;1.65;;;;;;;2.46;83.31;100143.84;4968844;28;20727;-78
2021/01/13 10:57:30;;;;;;;9.73;1.40;;;;;;;2.34;83.04;100128.66;4965228;28;20568;-78
2021/01/13 11:00:11;;;;;;;11.73;2.47;;;;;;;2.74;83.48;100127.31;4984105;28;20069;-78
2021/01/13 11:02:57;;;;;;;13.00;2.00;;;;;;;2.59;82.20;100118.31;4970596;28;20096;-77
2021/01/13 11:05:41;;;;;;;8.02;1.85;;;;;;;2.45;83.39;100110.97;4981583;28;20058;-77
2021/01/13 11:08:13;;;;;;;11.55;2.22;;;;;;;2.50;82.77;100111.66;4974682;28;20062;-77
2021/01/13 11:10:40;;;;;;;5.13;1.67;;;;;;;2.37;82.89;100112.13;4969440;28;20050;-78
2021/01/13 11:13:12;;;;;;;6.07;1.75;;;;;;;2.58;85.26;100106.22;4979103;28;20420;-76
2021/01/13 11:15:39;;;;;;;9.50;1.48;;;;;;;2.52;82.28;100102.09;4977285;28;20069;-77
2021/01/13 11:18:11;;;;;;;10.77;1.98;;;;;;;2.58;83.65;100089.78;4980469;28;20050;-77
2021/01/13 11:20:39;;;;;;;12.20;2.47;;;;;;;2.65;83.34;100081.69;4967322;28;20784;-77
2021/01/13 11:23:07;;;;;;;10.52;1.50;;;;;;;2.43;82.72;100085.94;4965497;28;20046;-78
2021/01/13 11:25:39;;;;;;;12.77;1.90;;;;;;;2.71;82.92;100073.69;4976447;28;20105;-76
2021/01/13 11:28:13;;;;;;;10.13;1.60;;;;;;;2.87;82.20;100071.38;4980207;28;20412;-77
2021/01/13 11:30:44;;;;;;;5.85;1.20;;;;;;;2.60;81.82;100064.56;4989407;28;20114;-78
2021/01/13 11:33:14;;;;;;;12.85;1.50;;;;;;;2.78;82.56;100064.75;4967556;28;20120;-76
2021/01/13 11:35:42;;;;;;;9.07;2.00;;;;;;;3.01;81.08;100058.72;4989096;28;20061;-76
2021/01/13 11:38:42;;;;;;;10.82;1.83;;;;;;;2.81;82.08;100049.97;4990061;28;20184;-76
2021/01/13 11:41:36;;;;;;;7.95;1.33;;;;;;;2.68;82.11;100049.56;4989796;28;20214;-79
2021/01/13 11:44:39;;;;;;;9.40;2.10;;;;;;;2.63;82.69;100051.50;5003872;28;20111;-78
2021/01/13 11:47:19;;;;;;;6.30;1.63;;;;;;;2.44;82.80;100046.09;4962024;28;20122;-76
2021/01/13 11:49:58;;;;;;;5.45;1.25;;;;;;;2.62;82.91;100047.19;4968723;28;20045;-76
2021/01/13 11:52:32;;;;;;;10.65;2.03;;;;;;;2.71;82.59;100033.88;4967797;28;20058;-76
2021/01/13 11:55:05;;;;;;;10.88;2.10;;;;;;;2.62;82.53;100031.59;4983411;28;20038;-74
2021/01/13 11:57:35;;;;;;;8.02;1.23;;;;;;;2.72;82.22;100028.63;4967631;28;20054;-75
2021/01/13 12:00:15;;;;;;;6.32;1.40;;;;;;;2.69;81.61;100020.06;4968545;28;20054;-77
2021/01/13 12:02:50;;;;;;;9.98;1.92;;;;;;;2.76;81.85;100027.59;4988777;28;20058;-76
2021/01/13 12:05:23;;;;;;;10.02;1.70;;;;;;;2.96;80.92;100006.06;4991142;28;20047;-75
2021/01/13 12:08:09;;;;;;;9.00;1.70;;;;;;;2.79;81.42;100001.50;4948435;28;20086;-76
2021/01/13 12:10:49;;;;;;;6.38;1.58;;;;;;;2.91;81.31;100004.53;4953810;28;20050;-74